Swansea, MA

8:47 AM EDT on October 21, 2014 (GMT -0400)
South of Downtown Warren | Change Station
CLOSE
Current Station
Personal Weather Station
Location: Warren, RI
Elevation: 47 ft
Nearby Weather Stations

Elev 47 ft 41.72 °N, 71.28 °W | Updated 2 seconds ago

Mostly Cloudy
Mostly Cloudy
52.2 °F
Feels Like 52.2 °F
N
0.0
Wind Variable Wind from NE
Gusts 2.0 mph

Today
High -- | Low -- °F
--% Chance of Precip.
Yesterday
High -- | Low -- °F
Precip. -- in
7:03 AM 5:54 PM
Waning Crescent, 6% visible
Pressure 29.96 in
Visibility 6.0 miles
Clouds Few 3100 ft
Mostly Cloudy 4100 ft
Mostly Cloudy 4900 ft
Mostly Cloudy 25000 ft
Dew Point 50 °F
Humidity 94%
Rainfall 0.00 in
Snow Depth Not available.
UV 0.0 out of 12
Pollen .30 out of 12
PM2.5 Good
Flu Activity No Activity
METAR KPVD 211151Z 01004KT 6SM BR FEW031 BKN041 BKN049 BKN250 10/09 A2996 RMK AO2 SLP145 60005 70005 T01000089 10100 20078 55002

More Conditions Fewer Conditions

Pressure 29.96 in
Visibility 6.0 miles
Clouds Few 3100 ft
Mostly Cloudy 4100 ft
Mostly Cloudy 4900 ft
Mostly Cloudy 25000 ft
Dew Point 50 °F
Humidity 94%
Rainfall 0.00 in
Snow Depth Not available.
UV 0.0 out of 12
Pollen .30 out of 12
PM2.5 Good
Flu Activity No Activity
METAR KPVD 211151Z 01004KT 6SM BR FEW031 BKN041 BKN049 BKN250 10/09 A2996 RMK AO2 SLP145 60005 70005 T01000089 10100 20078 55002

More Conditions Fewer Conditions

10-Day Weather Forecast

Almanac

Astronomy

Oct. 21, 2014 Rise Set
Actual Time 7:03 AM EDT 5:54 PM EDT
Civil Twilight 6:35 AM EDT 6:22 PM EDT
Nautical Twilight 6:03 AM EDT 6:55 PM EDT
Astronomical Twilight 5:31 AM EDT 7:27 PM EDT
Moon 4:43 AM EDT 4:48 PM EDT
Length of Visible Light 11h 47m
Length of Day
10h 50m
Tomorrow will be 2m 38s shorter.
Waning Crescent, 6% of the Moon is Illuminated
Today
Waning Crescent
Oct 23
New
Oct 30
First Quarter
Nov 6
Full
Nov 14
Last Quarter

Today's Extremes

State Highs State Lows

Community

WunderPhotos

Upload Photos

1,763,649 photos uploaded!

Nearby

Air Quality

  Air Quality AQ Index Pollutant
Yesterday Good
PM2.5
Yesterday Good
OZONE
Current Good
PM2.5
Tuesday Good
PM2.5
Wednesday Good
PM2.5
Thursday Good
PM2.5

Snow Depth

Station Depth Elevation
No new snow has been reported.

Earthquake Activity

City Distance Mag. Time & Date
No recent earthquake activity has been reported nearby.
Minimum magnitude displayed is 2.5.

Coastal Water Temperatures

Place Temperature
Newport, RI 61.0 °F
Quonset Point, RI 62.1 °F
Conimicut Light, RI 61.0 °F

Nearby Weather Stations